Time;durP1;ratioP1;P1;durP2;ratioP2;P2;SDS_P1;SDS_P2;PMS_P1;PMS_P2;Temp;Humidity;BMP_temperature;BMP_pressure;BME280_temperature;BME280_humidity;BME280_pressure;Samples;Min_cycle;Max_cycle;Signal;HPM_P1;HPM_P2
2022/02/27 00:00:13;;;;;;;28.20;14.57;;;;;;;23.27;15.82;99728.66;5101597;28;20053;-74
2022/02/27 00:02:39;;;;;;;35.30;16.30;;;;;;;23.02;16.31;99722.06;5092865;28;20033;-74
2022/02/27 00:05:06;;;;;;;34.70;16.63;;;;;;;22.95;16.04;99724.00;5096361;28;20472;-74
2022/02/27 00:07:32;;;;;;;34.15;15.70;;;;;;;23.08;16.01;99730.94;5096647;28;20036;-74
2022/02/27 00:09:59;;;;;;;29.67;13.20;;;;;;;23.10;15.96;99734.94;5106019;28;20035;-74
2022/02/27 00:12:25;;;;;;;29.35;13.48;;;;;;;22.71;16.34;99736.56;5092138;28;20544;-74
2022/02/27 00:14:51;;;;;;;26.45;12.27;;;;;;;22.86;16.36;99738.31;5101042;28;20418;-74
2022/02/27 00:17:17;;;;;;;25.98;13.18;;;;;;;23.06;16.46;99741.69;5093943;28;20059;-74
2022/02/27 00:19:44;;;;;;;37.15;16.65;;;;;;;23.25;16.23;99738.66;5092995;28;20077;-75
2022/02/27 00:22:10;;;;;;;31.70;14.35;;;;;;;23.23;15.85;99735.44;5080738;28;20427;-75
2022/02/27 00:24:36;;;;;;;33.92;13.15;;;;;;;22.91;16.04;99739.97;5073746;28;20056;-75
2022/02/27 00:27:02;;;;;;;34.30;16.40;;;;;;;22.95;16.04;99735.19;5095496;28;20047;-75
2022/02/27 00:29:28;;;;;;;29.00;15.75;;;;;;;23.09;16.19;99733.31;5097787;28;20032;-75
2022/02/27 00:31:54;;;;;;;34.28;16.15;;;;;;;22.71;16.41;99736.56;5096097;28;20064;-75
2022/02/27 00:34:20;;;;;;;37.70;16.58;;;;;;;22.66;16.34;99742.53;5100639;28;20485;-75
2022/02/27 00:36:49;;;;;;;29.45;13.38;;;;;;;22.40;16.36;99739.81;5090115;28;20032;-75
2022/02/27 00:39:18;;;;;;;31.58;14.07;;;;;;;22.36;16.63;99744.56;5095685;28;20032;-74
2022/02/27 00:41:44;;;;;;;42.80;18.38;;;;;;;22.52;16.36;99740.34;5093855;28;20032;-74
2022/02/27 00:44:10;;;;;;;35.47;16.90;;;;;;;22.29;16.76;99745.28;5107116;28;20055;-75
2022/02/27 00:46:36;;;;;;;33.90;15.88;;;;;;;22.06;16.96;99743.78;5087031;28;20404;-74
2022/02/27 00:49:02;;;;;;;38.45;17.40;;;;;;;22.37;16.42;99741.38;5107619;28;20111;-74
2022/02/27 00:51:28;;;;;;;33.28;16.80;;;;;;;22.51;16.40;99744.34;5088244;28;20500;-74
2022/02/27 00:53:55;;;;;;;38.08;17.02;;;;;;;22.73;16.00;99739.00;5093252;28;20384;-74
2022/02/27 00:56:21;;;;;;;39.03;17.45;;;;;;;22.71;16.31;99736.56;5092360;28;20037;-74
2022/02/27 00:58:50;;;;;;;39.70;17.40;;;;;;;22.59;15.69;99745.22;5092058;28;20024;-74
2022/02/27 01:01:20;;;;;;;33.35;16.95;;;;;;;22.51;15.77;99743.53;5092408;28;20107;-74
2022/02/27 01:03:47;;;;;;;34.53;16.23;;;;;;;22.43;15.95;99737.03;5093773;28;20040;-74
2022/02/27 01:06:13;;;;;;;29.83;14.88;;;;;;;22.17;16.31;99739.16;5090667;28;20397;-74
2022/02/27 01:08:39;;;;;;;29.95;14.63;;;;;;;21.85;16.31;99738.72;5095621;28;20040;-74
2022/02/27 01:11:06;;;;;;;32.50;15.25;;;;;;;21.58;16.79;99734.31;5093127;28;20043;-74
2022/02/27 01:13:32;;;;;;;35.38;15.55;;;;;;;22.08;16.31;99736.63;5085321;28;20024;-74
2022/02/27 01:15:58;;;;;;;32.13;15.25;;;;;;;22.30;16.39;99735.72;5089429;28;20067;-74
2022/02/27 01:18:24;;;;;;;35.67;16.63;;;;;;;22.30;16.29;99738.50;5089315;28;20043;-74
2022/02/27 01:20:50;;;;;;;35.88;16.38;;;;;;;22.24;16.10;99744.84;5091251;28;20385;-74
2022/02/27 01:23:16;;;;;;;32.58;15.23;;;;;;;22.10;16.12;99745.44;5107703;28;20032;-74
2022/02/27 01:25:42;;;;;;;35.25;15.80;;;;;;;21.61;16.50;99741.97;5089295;28;20135;-74
2022/02/27 01:28:08;;;;;;;37.70;16.25;;;;;;;21.44;17.04;99742.50;5093249;28;20032;-74
2022/02/27 01:30:34;;;;;;;30.15;14.45;;;;;;;21.55;16.99;99740.66;5102778;28;20206;-73
2022/02/27 01:33:01;;;;;;;27.20;14.30;;;;;;;21.48;16.56;99741.38;5091800;28;20505;-74
2022/02/27 01:35:27;;;;;;;37.30;17.75;;;;;;;21.65;16.97;99742.81;5094336;28;20044;-73
2022/02/27 01:37:53;;;;;;;35.90;16.45;;;;;;;21.57;16.51;99747.50;5091584;28;20028;-74
2022/02/27 01:40:19;;;;;;;35.25;15.45;;;;;;;21.60;16.50;99745.94;5089291;28;20477;-74
2022/02/27 01:42:45;;;;;;;31.98;14.40;;;;;;;21.67;16.31;99749.66;5097519;28;20111;-74
2022/02/27 01:45:12;;;;;;;31.63;15.60;;;;;;;21.63;16.67;99747.97;5096853;28;20020;-74
2022/02/27 01:47:38;;;;;;;37.17;16.77;;;;;;;21.51;16.54;99742.59;5088612;28;20114;-73
2022/02/27 01:50:05;;;;;;;47.33;19.15;;;;;;;21.60;16.40;99732.78;5086284;28;20458;-74
2022/02/27 01:52:32;;;;;;;30.38;15.75;;;;;;;21.64;16.13;99744.00;5094301;28;20035;-73
2022/02/27 01:54:58;;;;;;;30.08;14.35;;;;;;;21.62;16.13;99737.97;5094447;28;20040;-74
2022/02/27 01:57:24;;;;;;;30.52;14.65;;;;;;;21.47;16.77;99745.34;5094477;28;20028;-74
2022/02/27 01:59:51;;;;;;;35.75;15.95;;;;;;;21.38;16.48;99741.22;5094608;28;20028;-73
2022/02/27 02:02:17;;;;;;;36.40;16.17;;;;;;;21.09;16.71;99740.78;5097312;28;20043;-74
2022/02/27 02:04:44;;;;;;;27.40;11.90;;;;;;;20.31;18.16;99746.88;5095427;28;20031;-73
2022/02/27 02:07:11;;;;;;;25.75;11.48;;;;;;;19.40;19.10;99740.09;5083606;28;20060;-73
2022/02/27 02:09:37;;;;;;;25.65;13.00;;;;;;;18.12;21.02;99749.00;5074897;28;20398;-74
2022/02/27 02:12:05;;;;;;;27.70;12.27;;;;;;;16.02;23.76;99749.94;5091658;28;20116;-73
2022/02/27 02:14:31;;;;;;;32.80;14.10;;;;;;;14.23;26.68;99758.00;5082563;28;20043;-74
2022/02/27 02:16:57;;;;;;;45.22;17.83;;;;;;;14.16;28.31;99759.63;5092779;28;20036;-74
2022/02/27 02:19:25;;;;;;;38.92;16.40;;;;;;;16.76;23.71;99747.06;5080165;28;20037;-74
2022/02/27 02:21:53;;;;;;;37.20;16.08;;;;;;;17.30;22.90;99750.44;5089940;28;20028;-74
2022/02/27 02:24:21;;;;;;;27.42;13.80;;;;;;;17.90;22.09;99753.13;5083359;28;20428;-74
2022/02/27 02:26:48;;;;;;;32.03;15.55;;;;;;;18.32;21.38;99752.75;5093674;28;20039;-74
2022/02/27 02:29:20;;;;;;;28.33;14.93;;;;;;;17.61;22.38;99749.88;5086831;28;20024;-74
2022/02/27 02:31:47;;;;;;;32.22;16.17;;;;;;;16.18;24.04;99755.66;5092738;28;20432;-74
2022/02/27 02:34:17;;;;;;;35.20;17.13;;;;;;;14.37;27.35;99755.91;5084435;28;20097;-74
2022/02/27 02:36:45;;;;;;;39.85;19.75;;;;;;;12.96;29.74;99768.53;5073695;28;20031;-74
2022/02/27 02:39:14;;;;;;;48.03;22.17;;;;;;;11.83;32.34;99763.84;5091019;28;20532;-74
2022/02/27 02:41:40;;;;;;;48.15;21.13;;;;;;;11.39;33.52;99768.09;5081982;28;20426;-74
2022/02/27 02:44:08;;;;;;;48.13;21.60;;;;;;;12.17;31.97;99773.16;5090663;28;20028;-74
2022/02/27 02:46:35;;;;;;;47.75;23.33;;;;;;;11.49;33.26;99775.28;5089396;28;20079;-75
2022/02/27 02:49:05;;;;;;;50.30;23.25;;;;;;;11.95;32.51;99772.34;5087182;28;20028;-75
2022/02/27 02:51:31;;;;;;;55.50;24.73;;;;;;;12.10;32.44;99780.22;5072678;28;20036;-74
2022/02/27 02:53:58;;;;;;;48.13;22.88;;;;;;;12.88;31.34;99782.31;5089131;28;20040;-74
2022/02/27 02:56:24;;;;;;;41.75;21.20;;;;;;;13.63;29.68;99782.84;5074571;28;20024;-74
2022/02/27 02:58:50;;;;;;;42.35;21.05;;;;;;;15.21;27.27;99774.44;5081908;28;20036;-74
2022/02/27 03:01:18;;;;;;;38.90;19.83;;;;;;;16.55;24.80;99776.84;5081744;28;20488;-74
2022/02/27 03:03:46;;;;;;;38.28;17.45;;;;;;;16.33;25.22;99777.22;5090985;28;20047;-73
2022/02/27 03:06:13;;;;;;;40.35;19.17;;;;;;;17.44;23.43;99773.09;5090200;28;20496;-74
2022/02/27 03:08:41;;;;;;;31.80;16.48;;;;;;;18.67;22.21;99777.97;5087981;28;20063;-73
2022/02/27 03:11:07;;;;;;;38.47;17.27;;;;;;;19.85;20.16;99773.78;5089349;28;20111;-73
2022/02/27 03:13:35;;;;;;;32.95;14.73;;;;;;;20.82;19.12;99772.56;5088257;28;20050;-74
2022/02/27 03:16:01;;;;;;;34.30;14.70;;;;;;;21.23;18.13;99774.53;5086475;28;20482;-74
2022/02/27 03:18:28;;;;;;;26.90;13.00;;;;;;;21.55;17.61;99775.00;5089601;28;20050;-73
2022/02/27 03:20:56;;;;;;;33.15;14.80;;;;;;;21.77;17.05;99776.97;5083928;28;20032;-73
2022/02/27 03:23:22;;;;;;;29.42;14.48;;;;;;;21.84;16.94;99779.06;5089168;28;20027;-74
2022/02/27 03:25:48;;;;;;;31.85;14.70;;;;;;;21.20;17.91;99774.44;5084381;28;20470;-74
2022/02/27 03:28:14;;;;;;;23.13;11.50;;;;;;;21.31;17.84;99781.00;5080503;28;20039;-74
2022/02/27 03:30:41;;;;;;;26.95;13.00;;;;;;;21.09;18.39;99779.88;5083958;28;20130;-74
2022/02/27 03:33:08;;;;;;;28.42;13.70;;;;;;;21.39;18.11;99777.16;5084944;28;20428;-74
2022/02/27 03:35:35;;;;;;;25.23;11.30;;;;;;;21.70;17.94;99776.03;5084338;28;20036;-74
2022/02/27 03:38:03;;;;;;;24.15;11.25;;;;;;;22.12;17.27;99776.66;5086893;28;20032;-74
2022/02/27 03:40:29;;;;;;;20.33;10.38;;;;;;;22.63;16.93;99780.50;5090295;28;20036;-74
2022/02/27 03:42:56;;;;;;;26.30;11.90;;;;;;;22.77;16.42;99791.06;5087332;28;20036;-74
2022/02/27 03:45:22;;;;;;;20.90;10.38;;;;;;;22.61;16.82;99787.69;5087890;28;20028;-74
2022/02/27 03:47:48;;;;;;;24.15;12.07;;;;;;;22.87;16.74;99793.13;5071611;28;20036;-74
2022/02/27 03:50:17;;;;;;;24.30;11.02;;;;;;;23.15;16.26;99789.81;5084314;28;20033;-74
2022/02/27 03:52:45;;;;;;;26.48;12.13;;;;;;;23.35;15.89;99788.41;5084059;28;20032;-74
2022/02/27 03:55:15;;;;;;;25.25;10.88;;;;;;;23.36;15.73;99792.84;5086881;28;20045;-74
2022/02/27 03:57:42;;;;;;;24.88;12.38;;;;;;;23.43;15.52;99792.91;5079628;28;20035;-74
2022/02/27 04:00:14;;;;;;;26.27;12.40;;;;;;;23.16;15.40;99789.44;5093286;28;20034;-74
2022/02/27 04:02:41;;;;;;;27.02;13.02;;;;;;;23.04;15.27;99798.13;5087533;28;20051;-74
2022/02/27 04:05:08;;;;;;;26.73;12.98;;;;;;;22.68;15.88;99799.72;5090037;28;20032;-74
2022/02/27 04:07:34;;;;;;;30.40;14.40;;;;;;;22.56;16.10;99800.00;5102007;28;20032;-74
2022/02/27 04:10:01;;;;;;;26.65;11.68;;;;;;;22.27;15.60;99808.41;5102557;28;20477;-74
2022/02/27 04:12:27;;;;;;;26.90;12.18;;;;;;;21.99;15.80;99804.06;5092944;28;20081;-74
2022/02/27 04:14:53;;;;;;;25.42;12.23;;;;;;;21.89;15.72;99801.91;5077580;28;20524;-74
2022/02/27 04:17:19;;;;;;;25.10;11.80;;;;;;;21.89;15.86;99807.50;5079555;28;20404;-74
2022/02/27 04:19:48;;;;;;;24.20;10.68;;;;;;;21.83;15.91;99797.81;5095668;28;20107;-75
2022/02/27 04:22:14;;;;;;;31.42;12.82;;;;;;;21.41;15.99;99796.34;5103853;28;20043;-75
2022/02/27 04:24:40;;;;;;;23.98;10.88;;;;;;;21.33;16.21;99793.44;5106011;28;20520;-75
2022/02/27 04:27:07;;;;;;;26.33;12.40;;;;;;;21.35;16.26;99793.84;5095877;28;20154;-74
2022/02/27 04:29:33;;;;;;;29.10;12.45;;;;;;;21.53;16.09;99793.34;5106370;28;20488;-75
2022/02/27 04:31:59;;;;;;;26.77;11.90;;;;;;;21.64;15.90;99806.28;5100424;28;20079;-74
2022/02/27 04:34:25;;;;;;;29.23;13.30;;;;;;;21.67;15.72;99802.75;5094985;28;20047;-75
2022/02/27 04:36:51;;;;;;;28.15;12.50;;;;;;;21.77;15.60;99801.31;5093454;28;20039;-74
2022/02/27 04:39:17;;;;;;;29.35;14.05;;;;;;;21.67;15.72;99799.16;5097606;28;20059;-74
2022/02/27 04:41:43;;;;;;;25.13;12.55;;;;;;;21.45;16.21;99805.59;5095047;28;20032;-75
2022/02/27 04:44:09;;;;;;;27.13;12.68;;;;;;;21.19;16.32;99809.94;5094831;28;20036;-75
2022/02/27 04:46:35;;;;;;;31.88;12.20;;;;;;;21.20;16.35;99797.59;5094429;28;20032;-74
2022/02/27 04:49:01;;;;;;;30.45;12.48;;;;;;;21.39;16.29;99802.31;5070737;28;20401;-75
2022/02/27 04:51:27;;;;;;;26.85;11.20;;;;;;;21.10;16.44;99808.59;5093809;28;20512;-75
2022/02/27 04:53:53;;;;;;;23.58;10.95;;;;;;;21.09;16.42;99799.41;5093142;28;20024;-75
2022/02/27 04:56:20;;;;;;;25.90;11.32;;;;;;;20.93;16.90;99811.84;5095031;28;20048;-75
2022/02/27 04:58:46;;;;;;;20.30;10.68;;;;;;;20.94;16.66;99811.47;5091148;28;20154;-75
2022/02/27 05:01:12;;;;;;;24.13;10.52;;;;;;;21.23;16.84;99808.03;5082694;28;20146;-75
2022/02/27 05:03:38;;;;;;;21.13;9.48;;;;;;;21.12;16.82;99818.19;5094700;28;20094;-75
2022/02/27 05:06:04;;;;;;;21.02;10.48;;;;;;;21.21;16.57;99809.59;5087648;28;20054;-75
2022/02/27 05:08:30;;;;;;;20.58;9.82;;;;;;;21.21;16.64;99806.81;5089192;28;20036;-75
2022/02/27 05:10:56;;;;;;;21.40;8.85;;;;;;;21.36;16.69;99814.22;5079558;28;20039;-74
2022/02/27 05:13:23;;;;;;;20.42;9.55;;;;;;;21.44;16.44;99817.94;5088765;28;20070;-75
2022/02/27 05:15:49;;;;;;;23.70;11.52;;;;;;;21.16;16.75;99819.09;5115707;28;20034;-75
2022/02/27 05:18:15;;;;;;;22.08;11.55;;;;;;;21.35;16.66;99821.78;5096958;28;20039;-74
2022/02/27 05:20:41;;;;;;;18.75;9.70;;;;;;;21.74;15.95;99813.22;5062179;28;20500;-74
2022/02/27 05:23:07;;;;;;;23.05;10.63;;;;;;;21.72;15.73;99822.00;5093850;28;20067;-75
2022/02/27 05:25:33;;;;;;;20.65;9.98;;;;;;;21.47;16.00;99814.41;5092916;28;20440;-75
2022/02/27 05:27:59;;;;;;;23.17;10.13;;;;;;;21.86;15.79;99819.47;5099433;28;20089;-75
2022/02/27 05:30:25;;;;;;;24.20;11.65;;;;;;;21.83;15.84;99820.16;5094011;28;20066;-75
2022/02/27 05:32:52;;;;;;;20.55;9.48;;;;;;;21.52;15.84;99826.06;5094547;28;20365;-75
2022/02/27 05:35:18;;;;;;;20.45;10.13;;;;;;;21.40;16.30;99822.69;5094824;28;20032;-75
2022/02/27 05:37:44;;;;;;;21.33;10.25;;;;;;;21.27;16.14;99817.28;5085763;28;20028;-75
2022/02/27 05:40:11;;;;;;;23.73;11.13;;;;;;;21.22;16.39;99817.59;5092811;28;20032;-75
2022/02/27 05:42:37;;;;;;;22.38;11.27;;;;;;;21.50;16.05;99824.81;5083966;28;20036;-75
2022/02/27 05:45:06;;;;;;;20.77;10.23;;;;;;;21.75;15.63;99812.06;5089946;28;20061;-75
2022/02/27 05:47:32;;;;;;;27.63;10.90;;;;;;;21.98;15.34;99822.00;5094599;28;20039;-75
2022/02/27 05:49:58;;;;;;;22.10;10.52;;;;;;;21.81;15.24;99825.34;5092155;28;20028;-75
2022/02/27 05:52:24;;;;;;;22.42;10.43;;;;;;;21.87;15.46;99834.22;5096681;28;20473;-75
2022/02/27 05:54:50;;;;;;;20.33;10.55;;;;;;;21.77;15.48;99832.06;5104711;28;20078;-75
2022/02/27 05:57:17;;;;;;;20.77;10.45;;;;;;;21.82;15.27;99823.34;5097382;28;20039;-75
2022/02/27 05:59:43;;;;;;;24.08;10.18;;;;;;;21.98;15.63;99827.59;5100021;28;20041;-75
2022/02/27 06:02:09;;;;;;;18.70;9.68;;;;;;;21.88;15.46;99824.66;5080545;28;20066;-75
2022/02/27 06:04:35;;;;;;;21.20;11.07;;;;;;;21.74;16.04;99833.63;5083636;28;20023;-75
2022/02/27 06:07:02;;;;;;;20.25;10.05;;;;;;;21.45;16.16;99827.97;5086483;28;20028;-75
2022/02/27 06:09:28;;;;;;;19.75;8.80;;;;;;;21.45;16.34;99839.91;5091979;28;20044;-74
2022/02/27 06:11:54;;;;;;;24.75;11.95;;;;;;;21.83;15.66;99841.72;5091332;28;20035;-74
2022/02/27 06:14:20;;;;;;;18.58;9.73;;;;;;;21.58;15.98;99848.94;5097792;28;21190;-75
2022/02/27 06:16:46;;;;;;;20.98;10.23;;;;;;;21.50;16.08;99850.78;5105772;28;20047;-75
2022/02/27 06:19:13;;;;;;;22.00;10.73;;;;;;;21.48;16.29;99849.53;5091591;28;20031;-75
2022/02/27 06:21:39;;;;;;;22.67;10.38;;;;;;;21.62;16.16;99850.59;5087920;28;20064;-75
2022/02/27 06:24:05;;;;;;;24.02;11.45;;;;;;;22.06;16.08;99853.69;5094734;28;20075;-76
2022/02/27 06:26:34;;;;;;;20.83;11.10;;;;;;;22.36;15.98;99865.69;5093251;28;20039;-75
2022/02/27 06:29:02;;;;;;;21.15;10.30;;;;;;;22.43;15.36;99865.78;5094193;28;20035;-75
2022/02/27 06:31:31;;;;;;;24.35;10.15;;;;;;;22.56;15.64;99871.97;5093678;28;20078;-75
2022/02/27 06:33:57;;;;;;;23.33;11.35;;;;;;;22.42;15.60;99878.19;5088918;28;20063;-75
2022/02/27 06:36:24;;;;;;;23.63;10.25;;;;;;;22.01;15.97;99874.41;5089965;28;20024;-75
2022/02/27 06:38:50;;;;;;;25.05;10.55;;;;;;;22.16;16.03;99883.81;5097271;28;20023;-75
2022/02/27 06:41:16;;;;;;;21.38;11.02;;;;;;;22.47;16.08;99883.47;5088369;28;20115;-75
2022/02/27 06:43:43;;;;;;;21.52;10.30;;;;;;;22.97;16.02;99890.50;5087597;28;20027;-75
2022/02/27 06:46:09;;;;;;;24.58;11.23;;;;;;;23.48;15.69;99892.66;5089863;28;20068;-75
2022/02/27 06:48:36;;;;;;;24.08;11.02;;;;;;;23.78;15.32;99894.09;5083840;28;20378;-76
2022/02/27 06:51:02;;;;;;;22.73;11.77;;;;;;;23.19;16.07;99895.16;5092755;28;20024;-76
2022/02/27 06:53:28;;;;;;;24.95;11.93;;;;;;;23.02;16.63;99892.13;5091650;28;20063;-76
2022/02/27 06:55:54;;;;;;;23.00;10.82;;;;;;;23.21;16.57;99889.16;5085457;28;20123;-76
2022/02/27 06:58:20;;;;;;;21.63;9.95;;;;;;;23.78;16.47;99894.09;5091857;28;20028;-76
2022/02/27 07:00:47;;;;;;;25.75;10.75;;;;;;;23.65;16.57;99904.03;5081259;28;20200;-76
2022/02/27 07:03:13;;;;;;;23.83;12.60;;;;;;;19.70;20.79;99902.00;5084268;28;20031;-76
2022/02/27 07:05:39;;;;;;;25.33;13.40;;;;;;;17.41;23.63;99922.94;5096647;28;20032;-76
2022/02/27 07:08:06;;;;;;;25.00;13.45;;;;;;;16.14;25.54;99927.34;5085796;28;20030;-76
2022/02/27 07:10:33;;;;;;;28.67;14.07;;;;;;;16.89;25.18;99929.03;5096981;28;20067;-76
2022/02/27 07:12:59;;;;;;;27.15;14.23;;;;;;;16.90;25.19;99916.78;5080902;28;20436;-76
2022/02/27 07:15:25;;;;;;;33.03;15.88;;;;;;;17.17;25.39;99926.47;5092993;28;20085;-76
2022/02/27 07:17:51;;;;;;;34.08;16.05;;;;;;;18.43;23.27;99921.53;5091812;28;20023;-76
2022/02/27 07:20:17;;;;;;;29.15;14.30;;;;;;;18.80;22.33;99924.22;5090460;28;20089;-77
2022/02/27 07:22:43;;;;;;;28.48;13.70;;;;;;;19.68;21.93;99919.06;5097430;28;20020;-76
2022/02/27 07:25:11;;;;;;;32.33;15.57;;;;;;;18.80;22.19;99924.22;5091104;28;20047;-76
2022/02/27 07:27:37;;;;;;;24.80;13.20;;;;;;;20.29;21.45;99919.38;5093242;28;20059;-76
2022/02/27 07:30:05;;;;;;;23.50;13.13;;;;;;;21.66;20.31;99917.72;5088196;28;20032;-76
2022/02/27 07:32:31;;;;;;;24.00;12.85;;;;;;;22.44;18.95;99922.59;5083001;28;20440;-76
2022/02/27 07:34:58;;;;;;;25.55;12.75;;;;;;;22.74;18.91;99926.22;5105128;28;20064;-76
2022/02/27 07:37:25;;;;;;;25.45;12.32;;;;;;;22.73;19.10;99924.63;5099352;28;20060;-76
2022/02/27 07:39:51;;;;;;;24.33;11.60;;;;;;;22.45;19.25;99918.63;5078221;28;20075;-78
2022/02/27 07:42:17;;;;;;;22.13;11.68;;;;;;;22.08;19.48;99918.44;5086465;28;20070;-78
2022/02/27 07:44:43;;;;;;;26.63;14.02;;;;;;;20.80;20.65;99919.25;5094510;28;20066;-77
2022/02/27 07:47:09;;;;;;;23.63;11.85;;;;;;;19.99;21.90;99921.03;5090169;28;20036;-77
2022/02/27 07:49:35;;;;;;;24.48;14.27;;;;;;;18.78;23.75;99923.75;5095291;28;20065;-77
2022/02/27 07:52:02;;;;;;;21.92;11.75;;;;;;;20.64;21.78;99913.75;5090606;28;20028;-77
2022/02/27 07:54:28;;;;;;;20.88;12.30;;;;;;;22.07;20.42;99907.66;5093193;28;20392;-77
2022/02/27 07:56:55;;;;;;;25.25;13.45;;;;;;;23.07;19.21;99906.63;5098452;28;20454;-77
2022/02/27 07:59:21;;;;;;;28.35;13.98;;;;;;;23.19;18.11;99902.75;5093678;28;20480;-77
2022/02/27 08:01:47;;;;;;;25.27;13.52;;;;;;;23.73;18.38;99899.28;5091676;28;20442;-77
2022/02/27 08:04:14;;;;;;;21.77;12.30;;;;;;;23.24;18.58;99908.78;5092156;28;20028;-77
2022/02/27 08:06:40;;;;;;;26.75;11.05;;;;;;;22.73;19.08;99901.41;5094778;28;20515;-77
2022/02/27 08:09:07;;;;;;;26.20;11.32;;;;;;;22.96;18.58;99911.31;5094484;28;20372;-77
2022/02/27 08:11:33;;;;;;;22.58;13.23;;;;;;;22.69;18.25;99904.97;5089441;28;20055;-77
2022/02/27 08:14:00;;;;;;;17.85;10.50;;;;;;;23.23;18.96;99915.59;5102326;28;20028;-77
2022/02/27 08:16:26;;;;;;;19.73;10.55;;;;;;;22.82;18.64;99913.94;5091909;28;20029;-77
2022/02/27 08:18:52;;;;;;;18.33;8.98;;;;;;;22.79;18.54;99911.06;5096197;28;20089;-77
2022/02/27 08:21:18;;;;;;;14.05;8.85;;;;;;;22.01;19.91;99913.56;5103675;28;20420;-77
2022/02/27 08:23:45;;;;;;;19.92;11.93;;;;;;;23.13;18.95;99909.88;5102263;28;20060;-78
2022/02/27 08:26:11;;;;;;;22.20;11.90;;;;;;;23.57;18.32;99915.56;5088595;28;20089;-77
2022/02/27 08:28:37;;;;;;;24.00;12.30;;;;;;;24.02;18.42;99906.72;5093983;28;20406;-77
2022/02/27 08:31:03;;;;;;;20.95;12.32;;;;;;;24.33;18.32;99908.16;5092461;28;20027;-77
2022/02/27 08:33:29;;;;;;;27.88;14.55;;;;;;;24.69;18.01;99907.16;5086574;28;20020;-77
2022/02/27 08:35:56;;;;;;;20.67;13.43;;;;;;;24.55;17.36;99907.88;5099969;28;20024;-77
2022/02/27 08:38:23;;;;;;;26.15;12.88;;;;;;;24.30;17.34;99908.94;5096280;28;20032;-77
2022/02/27 08:40:51;;;;;;;23.05;13.20;;;;;;;24.66;17.45;99908.75;5093257;28;20027;-77
2022/02/27 08:43:17;;;;;;;23.35;11.23;;;;;;;24.60;17.46;99915.13;5081710;28;20035;-77
2022/02/27 08:45:43;;;;;;;20.30;11.27;;;;;;;24.78;17.17;99904.00;5089591;28;20092;-77
2022/02/27 08:48:09;;;;;;;21.27;11.85;;;;;;;24.77;17.72;99906.00;5093749;28;20036;-77
2022/02/27 08:50:36;;;;;;;19.48;11.98;;;;;;;24.65;17.64;99909.13;5087682;28;20032;-77
2022/02/27 08:53:02;;;;;;;20.95;11.18;;;;;;;24.64;16.78;99901.91;5095705;28;20032;-77
2022/02/27 08:55:29;;;;;;;19.70;10.70;;;;;;;24.82;17.53;99894.41;5094689;28;20032;-77
2022/02/27 08:57:55;;;;;;;19.60;11.68;;;;;;;25.00;16.92;99898.06;5090166;28;20496;-77
2022/02/27 09:00:22;;;;;;;24.05;11.73;;;;;;;25.14;17.22;99891.69;5090343;28;20060;-77
2022/02/27 09:02:48;;;;;;;20.52;11.63;;;;;;;25.14;17.28;99888.88;5089064;28;20031;-77
2022/02/27 09:05:15;;;;;;;20.05;10.98;;;;;;;25.24;17.00;99894.53;5090158;28;20035;-77
2022/02/27 09:07:41;;;;;;;20.27;11.52;;;;;;;25.10;16.68;99893.69;5074695;28;20028;-78
2022/02/27 09:10:12;;;;;;;23.00;10.68;;;;;;;25.03;16.43;99896.47;5097088;28;20044;-77
2022/02/27 09:12:42;;;;;;;18.48;11.20;;;;;;;24.35;17.59;99898.16;5094352;28;20028;-77
2022/02/27 09:15:10;;;;;;;22.42;11.15;;;;;;;24.52;16.83;99897.44;5102298;28;20039;-77
2022/02/27 09:17:36;;;;;;;19.88;11.13;;;;;;;23.85;17.18;99908.19;5092883;28;20024;-78
2022/02/27 09:20:04;;;;;;;16.13;9.70;;;;;;;23.55;17.82;99913.13;5090421;28;20068;-77
2022/02/27 09:22:30;;;;;;;18.67;10.45;;;;;;;23.98;17.57;99901.09;5090950;28;20039;-77
2022/02/27 09:24:56;;;;;;;17.90;9.93;;;;;;;22.68;18.14;99908.94;5092462;28;20506;-77
2022/02/27 09:27:22;;;;;;;17.65;9.32;;;;;;;23.27;18.06;99913.63;5090256;28;20032;-77
2022/02/27 09:29:48;;;;;;;17.77;10.35;;;;;;;23.55;17.73;99909.56;5090099;28;20062;-77
2022/02/27 09:32:14;;;;;;;18.52;9.07;;;;;;;23.36;17.82;99910.56;5075715;28;20494;-76
2022/02/27 09:34:40;;;;;;;21.48;9.65;;;;;;;23.95;17.44;99909.47;5083515;28;20040;-76
2022/02/27 09:37:06;;;;;;;22.10;10.10;;;;;;;22.82;18.60;99913.13;5081949;28;20099;-77
2022/02/27 09:39:32;;;;;;;15.85;9.52;;;;;;;22.52;18.83;99911.09;5083090;28;20032;-76
2022/02/27 09:41:59;;;;;;;16.17;9.45;;;;;;;23.23;18.03;99912.81;5088472;28;20598;-77
2022/02/27 09:44:25;;;;;;;18.65;9.65;;;;;;;23.96;17.55;99900.69;5084779;28;20048;-77
2022/02/27 09:46:51;;;;;;;20.80;10.30;;;;;;;24.40;17.55;99894.16;5087223;28;20366;-77
2022/02/27 09:49:18;;;;;;;17.75;9.27;;;;;;;24.79;17.17;99888.75;5078310;28;20590;-78
2022/02/27 09:51:44;;;;;;;15.10;10.02;;;;;;;23.35;17.82;99900.53;5071514;28;20041;-75
2022/02/27 09:54:13;;;;;;;12.93;7.93;;;;;;;23.71;18.19;99887.66;5080204;28;20036;-77
2022/02/27 09:56:41;;;;;;;18.50;10.48;;;;;;;23.85;17.82;99884.97;5085694;28;20047;-76
2022/02/27 09:59:07;;;;;;;19.48;8.40;;;;;;;24.38;17.98;99874.91;5087383;28;20446;-76
2022/02/27 10:01:38;;;;;;;13.30;8.30;;;;;;;24.74;17.32;99884.28;5086261;28;20043;-77
2022/02/27 10:04:23;;;;;;;14.43;7.90;;;;;;;25.30;16.52;99887.28;5086772;28;20060;-77
2022/02/27 10:06:50;;;;;;;16.58;8.43;;;;;;;24.48;17.24;99876.16;5088824;28;20403;-77
2022/02/27 10:09:26;;;;;;;15.85;8.82;;;;;;;23.61;18.07;99889.16;5085695;28;20400;-77
2022/02/27 10:11:52;;;;;;;13.45;7.93;;;;;;;23.72;18.18;99887.25;5083649;28;20036;-77
2022/02/27 10:14:28;;;;;;;12.60;7.28;;;;;;;24.09;17.25;99872.31;5077386;28;20113;-77
2022/02/27 10:17:04;;;;;;;12.05;6.22;;;;;;;25.25;16.57;99862.38;5076014;28;20032;-78
2022/02/27 10:19:36;;;;;;;19.00;9.85;;;;;;;21.95;18.41;99872.31;5082833;28;20035;-79
2022/02/27 10:22:06;;;;;;;15.35;7.45;;;;;;;22.63;18.69;99869.28;5082310;28;20486;-79
2022/02/27 10:24:35;;;;;;;13.73;7.20;;;;;;;19.92;21.75;99871.50;5064195;28;20052;-79
2022/02/27 10:27:11;;;;;;;10.65;6.30;;;;;;;21.71;19.21;99867.91;5085845;28;20028;-79
2022/02/27 10:29:37;;;;;;;10.27;5.88;;;;;;;20.41;20.67;99866.25;5082273;28;20051;-79
2022/02/27 10:32:05;;;;;;;8.63;5.90;;;;;;;20.92;20.11;99863.28;5085785;28;20032;-77
2022/02/27 10:34:33;;;;;;;13.63;5.97;;;;;;;18.63;21.40;99864.09;5087291;28;20059;-76
2022/02/27 10:37:03;;;;;;;10.50;5.70;;;;;;;17.08;23.92;99861.94;5071775;28;20094;-76
2022/02/27 10:39:42;;;;;;;9.15;4.75;;;;;;;15.64;24.36;99858.06;5092196;28;20039;-76
2022/02/27 10:42:20;;;;;;;9.95;4.43;;;;;;;14.45;24.71;99857.28;5093081;28;20050;-76
2022/02/27 10:44:55;;;;;;;7.63;4.30;;;;;;;14.73;24.74;99848.63;5092326;28;20035;-76
2022/02/27 10:47:32;;;;;;;7.65;3.92;;;;;;;15.00;24.70;99851.81;5087436;28;20036;-76
2022/02/27 10:50:00;;;;;;;7.57;4.13;;;;;;;14.84;24.79;99842.41;5087499;28;20028;-76
2022/02/27 10:52:32;;;;;;;5.22;3.22;;;;;;;15.29;24.18;99842.75;5087141;28;20040;-76
2022/02/27 10:55:07;;;;;;;7.20;3.03;;;;;;;17.17;21.92;99834.88;5087372;28;20428;-76
2022/02/27 10:57:40;;;;;;;5.00;3.13;;;;;;;17.38;21.18;99832.81;5088987;28;20036;-76
2022/02/27 11:00:29;;;;;;;8.60;3.33;;;;;;;17.16;20.95;99822.97;5083867;28;20036;-76
2022/02/27 11:03:06;;;;;;;7.07;3.25;;;;;;;16.69;22.13;99829.22;5066869;28;20043;-76
2022/02/27 11:05:37;;;;;;;7.90;2.85;;;;;;;15.33;22.54;99829.88;5068186;28;20513;-76
2022/02/27 11:08:07;;;;;;;5.43;2.90;;;;;;;17.97;20.02;99819.22;5084148;28;20036;-78
2022/02/27 11:10:39;;;;;;;6.00;2.80;;;;;;;18.89;19.24;99816.31;5085618;28;20024;-78
2022/02/27 11:13:10;;;;;;;7.60;3.42;;;;;;;17.19;20.94;99824.25;5082414;28;20520;-77
2022/02/27 11:15:38;;;;;;;4.93;2.65;;;;;;;16.71;21.91;99811.06;5085219;28;20031;-76
2022/02/27 11:18:06;;;;;;;5.25;2.22;;;;;;;19.07;19.22;99804.50;5089532;28;20036;-76